createdAt,value
2018-08-18T00:02:10.432Z,8.33
2018-08-18T00:04:38.021Z,7.30
2018-08-18T00:07:05.621Z,10.63
2018-08-18T00:09:33.261Z,9.33
2018-08-18T00:12:00.918Z,7.93
2018-08-18T00:14:28.537Z,9.43
2018-08-18T00:16:56.170Z,7.83
2018-08-18T00:19:25.290Z,8.20
2018-08-18T00:21:52.962Z,8.23
2018-08-18T00:24:20.572Z,8.33
2018-08-18T00:26:48.210Z,7.30
2018-08-18T00:29:15.874Z,7.83
2018-08-18T00:31:45.318Z,9.93
2018-08-18T00:34:13.030Z,9.20
2018-08-18T00:36:40.690Z,8.50
2018-08-18T00:39:10.805Z,10.58
2018-08-18T00:41:38.553Z,10.43
2018-08-18T00:44:07.850Z,8.97
2018-08-18T00:46:36.232Z,9.17
2018-08-18T00:49:04.389Z,8.43
2018-08-18T00:51:36.853Z,8.23
2018-08-18T00:54:05.957Z,7.93
2018-08-18T00:56:39.716Z,7.87
2018-08-18T00:59:07.328Z,7.73
2018-08-18T01:01:34.901Z,6.85
2018-08-18T01:04:07.158Z,7.57
2018-08-18T01:06:36.448Z,8.57
2018-08-18T01:09:09.477Z,9.50
2018-08-18T01:11:37.273Z,7.50
2018-08-18T01:14:12.808Z,9.45
2018-08-18T01:16:46.223Z,8.20
2018-08-18T01:19:13.799Z,8.20
2018-08-18T01:21:51.009Z,7.78
2018-08-18T01:24:19.352Z,7.50
2018-08-18T01:26:47.129Z,6.07
2018-08-18T01:29:16.439Z,7.07
2018-08-18T01:31:44.296Z,6.70
2018-08-18T01:34:11.880Z,6.70
2018-08-18T01:36:39.495Z,6.05
2018-08-18T01:39:10.242Z,6.20
2018-08-18T01:41:38.662Z,5.70
2018-08-18T01:44:12.030Z,6.57
2018-08-18T01:46:40.115Z,5.40
2018-08-18T01:49:23.908Z,4.63
2018-08-18T01:51:51.544Z,5.33
2018-08-18T01:54:19.145Z,4.85
2018-08-18T01:56:48.648Z,5.10
2018-08-18T01:59:17.037Z,4.80
2018-08-18T02:01:44.706Z,4.90
2018-08-18T02:04:13.804Z,5.05
2018-08-18T02:06:41.398Z,5.63
2018-08-18T02:09:09.032Z,5.80
2018-08-18T02:11:38.341Z,6.80
2018-08-18T02:14:07.561Z,5.57
2018-08-18T02:16:35.178Z,5.40
2018-08-18T02:19:02.867Z,6.50
2018-08-18T02:21:34.333Z,6.67
2018-08-18T02:24:03.227Z,6.40
2018-08-18T02:26:31.915Z,6.73
2018-08-18T02:28:59.981Z,6.80
2018-08-18T02:31:27.613Z,6.03
2018-08-18T02:33:55.817Z,6.15
2018-08-18T02:36:23.779Z,5.93
2018-08-18T02:38:57.491Z,6.70
2018-08-18T02:41:27.765Z,6.50
2018-08-18T02:43:56.307Z,5.83
2018-08-18T02:46:36.954Z,6.80
2018-08-18T02:49:05.031Z,8.60
2018-08-18T02:51:33.000Z,7.50
2018-08-18T02:54:01.061Z,7.97
2018-08-18T02:56:34.475Z,7.10
2018-08-18T02:59:03.333Z,8.43
2018-08-18T03:01:40.330Z,7.20
2018-08-18T03:04:10.448Z,8.20
2018-08-18T03:06:38.560Z,9.47
2018-08-18T03:09:07.909Z,7.93
2018-08-18T03:11:39.438Z,9.47
2018-08-18T03:14:07.246Z,7.37
2018-08-18T03:16:36.754Z,8.50
2018-08-18T03:19:05.001Z,8.37
2018-08-18T03:21:38.340Z,7.77
2018-08-18T03:24:20.248Z,9.00
2018-08-18T03:26:52.051Z,7.80
2018-08-18T03:29:20.797Z,8.30
2018-08-18T03:31:48.741Z,10.33
2018-08-18T03:34:16.838Z,10.30
2018-08-18T03:36:53.237Z,7.50
2018-08-18T03:39:27.539Z,9.90
2018-08-18T03:41:56.397Z,9.27
2018-08-18T03:44:24.036Z,8.30
2018-08-18T03:46:51.637Z,7.17
2018-08-18T03:49:19.565Z,8.17
2018-08-18T03:51:48.846Z,6.53
2018-08-18T03:54:17.120Z,7.47
2018-08-18T03:56:45.013Z,8.33
2018-08-18T03:59:12.624Z,8.80
2018-08-18T04:01:56.634Z,7.80
2018-08-18T04:04:25.510Z,6.77
2018-08-18T04:06:54.316Z,7.47
2018-08-18T04:09:24.858Z,7.47
2018-08-18T04:11:52.840Z,8.07
2018-08-18T04:14:24.596Z,7.60
2018-08-18T04:16:52.356Z,7.30
2018-08-18T04:19:21.128Z,7.87
2018-08-18T04:21:50.840Z,9.73
2018-08-18T04:24:18.489Z,9.03
2018-08-18T04:26:48.461Z,8.15
2018-08-18T04:29:16.973Z,7.23
2018-08-18T04:31:44.553Z,8.87
2018-08-18T04:34:12.158Z,10.28
2018-08-18T04:36:39.959Z,11.90
2018-08-18T04:39:10.493Z,12.00
2018-08-18T04:41:38.305Z,12.80
2018-08-18T04:44:06.137Z,13.50
2018-08-18T04:46:33.733Z,13.45
2018-08-18T04:49:01.652Z,13.98
2018-08-18T04:51:29.262Z,12.15
2018-08-18T04:53:56.903Z,13.87
2018-08-18T04:56:24.531Z,12.60
2018-08-18T04:58:52.159Z,14.55
2018-08-18T05:01:19.789Z,13.77
2018-08-18T05:04:08.764Z,13.43
2018-08-18T05:06:37.410Z,14.00
2018-08-18T05:09:15.025Z,16.50
2018-08-18T05:11:42.684Z,17.23
2018-08-18T05:14:10.274Z,17.73
2018-08-18T05:16:38.123Z,17.40
2018-08-18T05:19:05.871Z,14.90
2018-08-18T05:21:33.529Z,15.00
2018-08-18T05:24:20.150Z,16.23
2018-08-18T05:26:47.960Z,16.93
2018-08-18T05:29:15.550Z,14.57
2018-08-18T05:31:43.512Z,16.93
2018-08-18T05:34:11.110Z,16.20
2018-08-18T05:36:38.993Z,17.50
2018-08-18T05:39:08.172Z,16.23
2018-08-18T05:41:36.101Z,16.53
2018-08-18T05:44:03.834Z,16.63
2018-08-18T05:46:31.463Z,17.10
2018-08-18T05:49:03.741Z,16.35
2018-08-18T05:51:36.026Z,18.67
2018-08-18T05:54:03.760Z,16.93
2018-08-18T05:56:31.486Z,18.25
2018-08-18T05:58:59.152Z,16.87
2018-08-18T06:01:32.597Z,17.67
2018-08-18T06:04:12.593Z,17.10
2018-08-18T06:06:41.021Z,19.77
2018-08-18T06:09:10.601Z,16.80
2018-08-18T06:11:38.305Z,17.80
2018-08-18T06:14:06.538Z,18.40
2018-08-18T06:16:34.605Z,18.63
2018-08-18T06:19:02.235Z,15.97
2018-08-18T06:21:30.386Z,14.73
2018-08-18T06:23:57.968Z,15.93
2018-08-18T06:26:26.001Z,16.12
2018-08-18T06:28:54.251Z,14.58
2018-08-18T06:31:21.861Z,13.93
2018-08-18T06:33:49.540Z,16.42
2018-08-18T06:36:17.381Z,16.10
2018-08-18T06:38:45.378Z,17.40
2018-08-18T06:41:13.110Z,17.27
2018-08-18T06:43:41.304Z,16.13
2018-08-18T06:46:08.944Z,17.60
2018-08-18T06:48:37.211Z,16.00
2018-08-18T06:51:05.594Z,16.35
2018-08-18T06:53:39.061Z,15.13
2018-08-18T06:56:07.078Z,13.83
2018-08-18T06:58:34.969Z,16.53
2018-08-18T07:01:03.035Z,16.10
2018-08-18T07:03:37.041Z,14.87
2018-08-18T07:06:05.839Z,14.90
2018-08-18T07:08:39.891Z,14.10
2018-08-18T07:11:08.027Z,14.47
2018-08-18T07:13:35.718Z,14.00
2018-08-18T07:16:03.456Z,12.37
2018-08-18T07:18:31.725Z,12.78
2018-08-18T07:20:59.486Z,13.13
2018-08-18T07:23:28.081Z,13.55
2018-08-18T07:25:56.550Z,12.50
2018-08-18T07:28:24.358Z,14.40
2018-08-18T07:30:53.125Z,12.28
2018-08-18T07:33:21.093Z,14.33
2018-08-18T07:35:48.746Z,12.57
2018-08-18T07:38:16.420Z,11.80
2018-08-18T07:40:46.005Z,12.35
2018-08-18T07:43:18.725Z,11.77
2018-08-18T07:45:46.952Z,11.13
2018-08-18T07:48:14.636Z,11.53
2018-08-18T07:50:42.556Z,12.20
2018-08-18T07:53:10.344Z,11.45
2018-08-18T07:55:38.294Z,10.40
2018-08-18T07:58:11.003Z,11.65
2018-08-18T08:00:39.148Z,10.27
2018-08-18T08:03:09.401Z,12.00
2018-08-18T08:05:37.358Z,11.23
2018-08-18T08:08:05.349Z,12.53
2018-08-18T08:10:35.721Z,10.07
2018-08-18T08:13:03.453Z,10.00
2018-08-18T08:15:31.101Z,10.40
2018-08-18T08:17:58.897Z,10.10
2018-08-18T08:20:26.601Z,8.93
2018-08-18T08:22:55.234Z,8.10
2018-08-18T08:25:22.937Z,8.03
2018-08-18T08:27:52.409Z,6.87
2018-08-18T08:30:21.340Z,7.60
2018-08-18T08:32:48.999Z,8.10
2018-08-18T08:35:17.518Z,8.60
2018-08-18T08:37:46.014Z,8.03
2018-08-18T08:40:16.044Z,8.03
2018-08-18T08:42:43.865Z,6.13
2018-08-18T08:45:13.847Z,7.67
2018-08-18T08:47:42.737Z,7.57
2018-08-18T08:50:12.937Z,7.10
2018-08-18T08:52:46.810Z,7.00
2018-08-18T08:55:15.207Z,7.00
2018-08-18T08:57:42.865Z,8.53
2018-08-18T09:00:10.869Z,6.85
2018-08-18T09:02:38.627Z,7.20
2018-08-18T09:05:06.945Z,8.83
2018-08-18T09:07:35.606Z,9.03
2018-08-18T09:10:04.370Z,9.53
2018-08-18T09:12:32.011Z,8.50
2018-08-18T09:14:59.781Z,8.58
2018-08-18T09:17:27.463Z,7.00
2018-08-18T09:19:55.157Z,8.07
2018-08-18T09:22:22.805Z,6.67
2018-08-18T09:24:50.447Z,8.83
2018-08-18T09:27:17.973Z,7.87
2018-08-18T09:29:46.632Z,9.00
2018-08-18T09:32:15.034Z,8.40
2018-08-18T09:34:53.037Z,7.62
2018-08-18T09:37:21.239Z,9.73
2018-08-18T09:39:48.833Z,7.20
2018-08-18T09:42:17.806Z,8.55
2018-08-18T09:44:51.891Z,6.87
2018-08-18T09:47:19.636Z,7.73
2018-08-18T09:49:47.328Z,9.63
2018-08-18T09:52:17.235Z,7.50
2018-08-18T09:54:44.842Z,7.80
2018-08-18T09:57:13.167Z,6.80
2018-08-18T09:59:40.861Z,7.07
2018-08-18T10:02:10.424Z,6.90
2018-08-18T10:04:38.078Z,6.80
2018-08-18T10:07:06.597Z,6.78
2018-08-18T10:09:34.223Z,6.37
2018-08-18T10:12:01.867Z,6.03
2018-08-18T10:14:29.533Z,6.00
2018-08-18T10:16:57.581Z,7.00
2018-08-18T10:19:25.153Z,6.40
2018-08-18T10:21:53.129Z,8.20
2018-08-18T10:24:20.739Z,7.70
2018-08-18T10:26:54.186Z,7.50
2018-08-18T10:29:23.394Z,7.53
2018-08-18T10:31:53.202Z,6.70
2018-08-18T10:34:21.932Z,7.03
2018-08-18T10:36:51.387Z,6.10
2018-08-18T10:39:19.219Z,7.37
2018-08-18T10:42:14.767Z,7.10
2018-08-18T10:44:50.299Z,6.00
2018-08-18T10:47:20.186Z,6.33
2018-08-18T10:50:04.999Z,6.40
2018-08-18T10:52:58.711Z,6.60
2018-08-18T10:55:26.344Z,6.03
2018-08-18T10:58:04.549Z,7.72
2018-08-18T11:00:33.258Z,7.00
2018-08-18T11:03:02.230Z,6.23
2018-08-18T11:05:30.214Z,6.60
2018-08-18T11:08:04.046Z,6.93
2018-08-18T11:10:33.869Z,7.33
2018-08-18T11:13:02.800Z,5.90
2018-08-18T11:15:30.451Z,6.63
2018-08-18T11:17:58.600Z,6.10
2018-08-18T11:20:27.583Z,6.50
2018-08-18T11:23:00.040Z,6.80
2018-08-18T11:25:31.961Z,4.83
2018-08-18T11:27:59.801Z,6.80
2018-08-18T11:30:27.585Z,6.47
2018-08-18T11:32:56.172Z,6.90
2018-08-18T11:35:23.879Z,6.43
2018-08-18T11:38:12.968Z,6.60
2018-08-18T11:40:40.709Z,6.80
2018-08-18T11:43:10.198Z,6.50
2018-08-18T11:45:38.586Z,7.40
2018-08-18T11:48:15.031Z,6.97
2018-08-18T11:50:43.105Z,6.90
2018-08-18T11:53:10.701Z,8.03
2018-08-18T11:55:38.739Z,7.25
2018-08-18T11:58:08.567Z,5.57
2018-08-18T12:00:42.014Z,6.63
2018-08-18T12:03:11.687Z,5.93
2018-08-18T12:05:52.898Z,6.57
2018-08-18T12:08:22.124Z,7.60
2018-08-18T12:10:51.106Z,6.47
2018-08-18T12:13:25.905Z,7.03
2018-08-18T12:15:58.877Z,5.37
2018-08-18T12:18:28.176Z,5.60
2018-08-18T12:20:57.216Z,4.97
2018-08-18T12:23:24.954Z,4.50
2018-08-18T12:25:58.065Z,5.50
2018-08-18T12:28:30.321Z,4.90
2018-08-18T12:30:58.901Z,5.30
2018-08-18T12:33:27.121Z,4.40
2018-08-18T12:35:54.709Z,4.40
2018-08-18T12:38:22.307Z,4.40
2018-08-18T12:40:49.972Z,4.83
2018-08-18T12:43:22.267Z,4.27
2018-08-18T12:45:54.674Z,4.20
2018-08-18T12:48:22.638Z,3.73
2018-08-18T12:50:50.247Z,5.67
2018-08-18T12:53:17.865Z,4.85
2018-08-18T12:55:50.188Z,3.67
2018-08-18T12:58:18.107Z,3.93
2018-08-18T13:00:45.717Z,4.40
2018-08-18T13:03:13.323Z,3.17
2018-08-18T13:05:41.536Z,4.23
2018-08-18T13:08:09.161Z,4.55
2018-08-18T13:10:36.798Z,4.40
2018-08-18T13:13:04.592Z,4.53
2018-08-18T13:15:32.158Z,5.70
2018-08-18T13:17:59.816Z,4.60
2018-08-18T13:20:27.959Z,4.85
2018-08-18T13:22:55.553Z,4.35
2018-08-18T13:25:24.793Z,3.83
2018-08-18T13:27:53.419Z,3.70
2018-08-18T13:30:21.711Z,3.90
2018-08-18T13:32:50.879Z,3.80
2018-08-18T13:35:18.459Z,3.90
2018-08-18T13:37:46.009Z,3.50
2018-08-18T13:40:13.651Z,3.83
2018-08-18T13:42:41.638Z,4.03
2018-08-18T13:45:10.058Z,4.00
2018-08-18T13:47:37.690Z,3.85
2018-08-18T13:50:08.495Z,3.30
2018-08-18T13:52:41.377Z,2.73
2018-08-18T13:55:09.672Z,2.40
2018-08-18T13:57:37.354Z,3.00
2018-08-18T14:00:11.265Z,3.20
2018-08-18T14:02:39.283Z,2.53
2018-08-18T14:05:17.190Z,3.00
2018-08-18T14:07:57.504Z,2.27
2018-08-18T14:10:25.362Z,2.10
2018-08-18T14:12:53.995Z,2.73
2018-08-18T14:15:21.670Z,2.50
2018-08-18T14:17:59.704Z,2.62
2018-08-18T14:20:27.880Z,2.57
2018-08-18T14:23:01.163Z,3.97
2018-08-18T14:25:29.015Z,2.83
2018-08-18T14:28:00.584Z,2.70
2018-08-18T14:30:29.491Z,3.57
2018-08-18T14:32:57.136Z,3.60
2018-08-18T14:35:25.484Z,3.10
2018-08-18T14:37:53.052Z,3.20
2018-08-18T14:40:20.705Z,3.10
2018-08-18T14:42:49.329Z,2.73
2018-08-18T14:45:18.511Z,4.00
2018-08-18T14:47:47.142Z,3.23
2018-08-18T14:50:23.900Z,3.83
2018-08-18T14:52:51.608Z,3.20
2018-08-18T14:55:20.164Z,2.92
2018-08-18T14:57:51.602Z,3.30
2018-08-18T15:00:20.777Z,3.77
2018-08-18T15:02:48.411Z,4.00
2018-08-18T15:05:16.218Z,2.70
2018-08-18T15:07:55.786Z,2.98
2018-08-18T15:10:37.325Z,2.60
2018-08-18T15:13:05.679Z,3.47
2018-08-18T15:15:34.044Z,3.57
2018-08-18T15:18:06.155Z,4.10
2018-08-18T15:20:34.943Z,3.00
2018-08-18T15:23:03.291Z,3.20
2018-08-18T15:25:32.116Z,2.70
2018-08-18T15:28:02.959Z,2.33
2018-08-18T15:30:30.902Z,2.97
2018-08-18T15:32:59.796Z,3.43
2018-08-18T15:35:27.427Z,2.80
2018-08-18T15:37:56.291Z,3.40
2018-08-18T15:40:26.137Z,3.20
2018-08-18T15:42:54.141Z,3.70
2018-08-18T15:45:22.448Z,3.60
2018-08-18T15:47:50.529Z,3.77
2018-08-18T15:50:18.110Z,3.60
2018-08-18T15:52:47.683Z,3.72
2018-08-18T15:55:15.683Z,4.40
2018-08-18T15:57:43.288Z,4.40
2018-08-18T16:00:30.315Z,4.15
2018-08-18T16:02:58.685Z,4.13
2018-08-18T16:05:28.107Z,4.40
2018-08-18T16:07:55.729Z,4.10
2018-08-18T16:10:23.358Z,3.02
2018-08-18T16:12:51.071Z,3.80
2018-08-18T16:15:20.459Z,3.63
2018-08-18T16:17:48.126Z,3.70
2018-08-18T16:20:21.077Z,3.95
2018-08-18T16:22:50.300Z,3.40
2018-08-18T16:25:33.746Z,2.50
2018-08-18T16:28:01.728Z,3.23
2018-08-18T16:30:29.338Z,2.90
2018-08-18T16:33:12.661Z,3.65
2018-08-18T16:35:41.489Z,3.87
2018-08-18T16:38:09.134Z,7.20
2018-08-18T16:40:37.233Z,4.35
2018-08-18T16:43:07.108Z,3.10
2018-08-18T16:45:34.746Z,3.90
2018-08-18T16:48:04.141Z,3.72
2018-08-18T16:50:32.201Z,3.50
2018-08-18T16:53:01.975Z,3.73
2018-08-18T16:55:30.923Z,4.60
2018-08-18T16:57:58.669Z,4.10
2018-08-18T17:00:26.233Z,4.27
2018-08-18T17:02:54.689Z,5.92
2018-08-18T17:05:22.332Z,13.60
2018-08-18T17:07:50.951Z,12.53
2018-08-18T17:10:18.705Z,4.70
2018-08-18T17:12:46.381Z,5.27
2018-08-18T17:15:14.028Z,4.10
2018-08-18T17:17:41.606Z,4.70
2018-08-18T17:20:09.734Z,4.80
2018-08-18T17:22:37.338Z,7.50
2018-08-18T17:25:07.240Z,4.70
2018-08-18T17:27:34.865Z,4.33
2018-08-18T17:30:03.044Z,4.12
2018-08-18T17:32:30.652Z,6.73
2018-08-18T17:34:58.200Z,5.20
2018-08-18T17:37:25.901Z,4.40
2018-08-18T17:39:54.269Z,4.20
2018-08-18T17:42:22.006Z,4.95
2018-08-18T17:44:49.597Z,5.20
2018-08-18T17:47:17.222Z,4.70
2018-08-18T17:50:01.430Z,4.97
2018-08-18T17:52:29.980Z,6.07
2018-08-18T17:55:16.055Z,4.90
2018-08-18T17:57:43.787Z,5.07
2018-08-18T18:00:17.691Z,5.43
2018-08-18T18:02:52.469Z,5.40
2018-08-18T18:05:23.102Z,4.67
2018-08-18T18:07:58.306Z,5.17
2018-08-18T18:10:28.760Z,5.73
2018-08-18T18:12:56.517Z,5.77
2018-08-18T18:15:36.166Z,5.70
2018-08-18T18:18:04.514Z,5.93
2018-08-18T18:20:33.172Z,6.53
2018-08-18T18:23:00.784Z,6.33
2018-08-18T18:25:28.530Z,5.87
2018-08-18T18:27:58.213Z,6.67
2018-08-18T18:30:26.962Z,5.70
2018-08-18T18:32:55.257Z,6.93
2018-08-18T18:35:23.620Z,7.63
2018-08-18T18:37:51.600Z,8.07
2018-08-18T18:40:19.242Z,6.83
2018-08-18T18:42:46.910Z,8.68
2018-08-18T18:45:15.066Z,7.28
2018-08-18T18:47:43.465Z,8.00
2018-08-18T18:50:13.511Z,7.57
2018-08-18T18:52:41.376Z,7.17
2018-08-18T18:55:09.009Z,7.00
2018-08-18T18:57:36.632Z,7.35
2018-08-18T19:00:08.040Z,7.17
2018-08-18T19:02:43.835Z,7.97
2018-08-18T19:05:19.837Z,7.90
2018-08-18T19:07:52.118Z,8.33
2018-08-18T19:10:22.196Z,8.90
2018-08-18T19:12:50.595Z,8.10
2018-08-18T19:15:18.800Z,13.50
2018-08-18T19:17:46.423Z,7.70
2018-08-18T19:20:22.124Z,9.93
2018-08-18T19:22:51.209Z,8.77
2018-08-18T19:25:18.858Z,9.20
2018-08-18T19:27:46.490Z,10.45
2018-08-18T19:30:14.103Z,10.80
2018-08-18T19:32:41.772Z,10.63
2018-08-18T19:35:09.725Z,11.60
2018-08-18T19:37:43.044Z,7.87
2018-08-18T19:40:11.156Z,9.00
2018-08-18T19:42:38.800Z,9.90
2018-08-18T19:45:06.469Z,10.40
2018-08-18T19:47:35.123Z,10.70
2018-08-18T19:50:03.567Z,11.50
2018-08-18T19:52:31.274Z,11.70
2018-08-18T19:54:58.934Z,9.48
2018-08-18T19:57:32.222Z,10.85
2018-08-18T20:00:10.118Z,9.83
2018-08-18T20:03:01.521Z,8.00
2018-08-18T20:05:29.272Z,8.37
2018-08-18T20:07:56.875Z,8.97
2018-08-18T20:10:24.629Z,7.33
2018-08-18T20:12:52.287Z,10.10
2018-08-18T20:15:20.003Z,9.50
2018-08-18T20:17:47.663Z,9.00
2018-08-18T20:20:19.931Z,9.15
2018-08-18T20:22:47.658Z,8.87
2018-08-18T20:25:16.049Z,10.05
2018-08-18T20:27:43.723Z,10.03
2018-08-18T20:30:12.241Z,10.18
2018-08-18T20:32:40.328Z,11.80
2018-08-18T20:35:07.906Z,9.70
2018-08-18T20:37:35.844Z,10.72
2018-08-18T20:40:04.612Z,9.65
2018-08-18T20:42:37.966Z,11.90
2018-08-18T20:45:07.208Z,13.20
2018-08-18T20:47:34.746Z,11.33
2018-08-18T20:50:02.399Z,9.78
2018-08-18T20:52:30.027Z,11.50
2018-08-18T20:54:59.553Z,11.37
2018-08-18T20:57:27.213Z,9.43
2018-08-18T20:59:54.860Z,12.90
2018-08-18T21:02:22.483Z,10.57
2018-08-18T21:04:57.881Z,12.50
2018-08-18T21:07:27.797Z,11.50
2018-08-18T21:09:55.428Z,11.00
2018-08-18T21:12:35.889Z,12.20
2018-08-18T21:15:03.659Z,10.40
2018-08-18T21:17:31.936Z,11.90
2018-08-18T21:19:59.576Z,12.43
2018-08-18T21:22:30.059Z,12.43
2018-08-18T21:24:57.889Z,14.60
2018-08-18T21:27:26.128Z,12.13
2018-08-18T21:29:55.096Z,13.20
2018-08-18T21:32:24.179Z,13.10
2018-08-18T21:34:52.682Z,11.00
2018-08-18T21:37:20.638Z,13.33
2018-08-18T21:39:48.508Z,13.57
2018-08-18T21:42:17.120Z,12.30
2018-08-18T21:44:44.700Z,13.43
2018-08-18T21:47:12.302Z,14.28
2018-08-18T21:49:42.056Z,15.60
2018-08-18T21:52:09.803Z,15.90
2018-08-18T21:54:37.327Z,15.30
2018-08-18T21:57:05.035Z,15.00
2018-08-18T21:59:51.592Z,13.80
2018-08-18T22:02:37.782Z,14.53
2018-08-18T22:05:09.260Z,15.13
2018-08-18T22:07:42.787Z,13.80
2018-08-18T22:10:10.617Z,13.70
2018-08-18T22:12:38.668Z,15.10
2018-08-18T22:15:13.238Z,14.53
2018-08-18T22:17:40.870Z,13.00
2018-08-18T22:20:08.532Z,13.00
2018-08-18T22:22:36.533Z,12.73
2018-08-18T22:25:05.366Z,12.73
2018-08-18T22:27:34.910Z,14.33
2018-08-18T22:30:04.247Z,15.70
2018-08-18T22:32:31.929Z,13.27
2018-08-18T22:35:00.017Z,15.38
2018-08-18T22:37:27.580Z,13.87
2018-08-18T22:39:55.326Z,14.38
2018-08-18T22:42:22.905Z,13.73
2018-08-18T22:44:50.434Z,16.63
2018-08-18T22:47:18.200Z,16.67
2018-08-18T22:49:45.792Z,16.45
2018-08-18T22:52:13.737Z,14.13
2018-08-18T22:54:41.413Z,16.30
2018-08-18T22:57:12.236Z,14.37
2018-08-18T22:59:40.405Z,17.00
2018-08-18T23:02:08.096Z,15.40
2018-08-18T23:04:36.969Z,15.15
2018-08-18T23:07:05.862Z,16.63
2018-08-18T23:09:33.414Z,14.83
2018-08-18T23:12:03.322Z,15.10
2018-08-18T23:14:38.433Z,18.00
2018-08-18T23:17:09.238Z,20.83
2018-08-18T23:19:36.894Z,18.93
2018-08-18T23:22:04.528Z,18.07
2018-08-18T23:24:34.836Z,17.40
2018-08-18T23:27:02.780Z,15.80
2018-08-18T23:29:30.420Z,16.93
2018-08-18T23:31:58.488Z,17.95
2018-08-18T23:34:26.275Z,17.57
2018-08-18T23:36:54.722Z,16.35
2018-08-18T23:39:22.365Z,15.93
2018-08-18T23:42:02.704Z,15.40
2018-08-18T23:44:30.293Z,16.37
2018-08-18T23:46:57.845Z,16.73
2018-08-18T23:49:25.506Z,16.77
2018-08-18T23:51:53.070Z,15.53
2018-08-18T23:54:23.330Z,14.18
2018-08-18T23:56:51.559Z,14.13
2018-08-18T23:59:21.188Z,13.23
